Thunder radar more information blitzortung!


Löydät sääaseman tiedot myös:

European Weather Network

Finland Weather Exchange

Weather Underground

AWEKAS



Weather Underground säähistoriasivu

Päivittäin yhteenveto Helmikuu 24, 2017 Yksiköt:  Englantilaiset    Metriset   Molemmat
« Edellinen Päivä
Seuraava Päivä »
Päivittäin Viikoittain Kuukausittain Vuosittain Mukautettu
  Korkea: Matala: Keskiarvo:
Lämpötila: TemperatureC °F -9.7 °F -7.8 °F
Kastepiste: DewpointC °F -10.9 °F -9.3 °F
Kosteus: Humidity % 86 % 89 %
Tuulen nopeus: WindSpeedKMH mph 0.0 mph 5.4 mph
Tuulenpuuska: WindSpeedGustKMH mph - -
Tuuli:- - NW
Ilmanpaine: PressurehPa in 977.2 in -
Sade: 0.0 in    
Historical Graphs
 
 
Taulukkotiedot Helmikuu 24, 2017
Aika Lämpötila Kastepiste Ilmanpaine Tuuli Tuulen nopeus Tuulenpuuska Kosteus Sademäärä (tunneittain)
TemperatureC °F DewpointC °F PressurehPa in Calm     Humidity % HourlyPrecipMM in
00:00 -9.7 °F -10.8 °F 977.2 in Calm     92 % 0.0 in
00:15 -9.4 °F -10.5 °F 977.2 in Calm   3.2 mph 92 % 0.0 in
00:30 -9.1 °F -10.1 °F 977.2 in West 1.6 mph 6.4 mph 92 % 0.0 in
00:45 -8.7 °F -9.9 °F 977.2 in West 3.2 mph 6.4 mph 91 % 0.0 in
01:00 -8.6 °F -9.8 °F 977.2 in West 1.6 mph 9.7 mph 91 % 0.0 in
01:15 -8.5 °F -9.8 °F 977.2 in West 3.2 mph 9.7 mph 90 % 0.0 in
01:30 -8.4 °F -9.7 °F 977.2 in WNW 3.2 mph 14.5 mph 90 % 0.0 in
01:45 -8.4 °F -9.7 °F 977.2 in WNW 3.2 mph 12.9 mph 90 % 0.0 in
02:00 -8.3 °F -9.6 °F 977.2 in WNW 3.2 mph 12.9 mph 90 % 0.0 in
02:15 -8.2 °F -9.6 °F 977.2 in NW 3.2 mph 9.7 mph 90 % 0.0 in
02:30 -8.2 °F -9.6 °F 977.2 in West 4.8 mph 14.5 mph 90 % 0.0 in
02:45 -8.2 °F -9.5 °F 977.2 in WNW 1.6 mph 9.7 mph 90 % 0.0 in
03:00 -8.2 °F -9.5 °F 977.2 in West 4.8 mph 11.3 mph 90 % 0.0 in
03:15 -8.1 °F -9.3 °F 977.2 in West 3.2 mph 11.3 mph 91 % 0.0 in
03:30 -8.1 °F -9.3 °F 977.2 in WNW 6.4 mph 12.9 mph 91 % 0.0 in
03:45 -8.1 °F -9.4 °F 977.2 in WNW 6.4 mph 12.9 mph 90 % 0.0 in
04:00 -8.1 °F -9.3 °F 977.2 in WNW 4.8 mph 14.5 mph 91 % 0.0 in
04:15 -8.1 °F -9.3 °F 977.2 in WNW 4.8 mph 11.3 mph 91 % 0.0 in
04:30 -8.1 °F -9.5 °F 977.2 in NW 6.4 mph 12.9 mph 90 % 0.0 in
04:45 -8.1 °F -9.5 °F 977.5 in NW 4.8 mph 11.3 mph 90 % 0.0 in
05:00 -8.1 °F -9.5 °F 977.5 in NW 4.8 mph 14.5 mph 90 % 0.0 in
05:15 -8.2 °F -9.5 °F 977.5 in NW 6.4 mph 20.9 mph 90 % 0.0 in
05:30 -8.2 °F -9.6 °F 977.5 in WNW 6.4 mph 16.1 mph 90 % 0.0 in
05:45 -8.4 °F -9.7 °F 977.5 in NW 4.8 mph 12.9 mph 90 % 0.0 in
06:00 -8.4 °F -9.8 °F 977.9 in NW 4.8 mph 12.9 mph 90 % 0.0 in
06:15 -8.6 °F -9.9 °F 977.9 in NW 4.8 mph 16.1 mph 90 % 0.0 in
06:30 -8.7 °F -10.1 °F 977.9 in NW 4.8 mph 12.9 mph 90 % 0.0 in
06:45 -8.7 °F -10.1 °F 978.2 in NW 4.8 mph 12.9 mph 90 % 0.0 in
07:00 -8.7 °F -10.0 °F 978.2 in NW 6.4 mph 14.5 mph 90 % 0.0 in
07:15 -8.8 °F -10.2 °F 978.2 in NW 6.4 mph 12.9 mph 90 % 0.0 in
07:30 -9.1 °F -10.4 °F 978.2 in NW 6.4 mph 17.7 mph 90 % 0.0 in
07:45 -9.2 °F -10.6 °F 978.2 in NW 6.4 mph 12.9 mph 90 % 0.0 in
08:00 -9.4 °F -10.8 °F 978.2 in WNW 4.8 mph 11.3 mph 90 % 0.0 in
08:15 -9.6 °F -10.9 °F 978.6 in NW 4.8 mph 12.9 mph 90 % 0.0 in
08:30 -9.4 °F -10.6 °F 978.6 in WNW 3.2 mph 9.7 mph 91 % 0.0 in
08:45 -9.2 °F -10.6 °F 978.9 in WNW 4.8 mph 14.5 mph 90 % 0.0 in
09:00 -9.2 °F -10.5 °F 978.9 in NW 4.8 mph 11.3 mph 90 % 0.0 in
09:15 -9.2 °F -10.5 °F 978.9 in NW 4.8 mph 14.5 mph 90 % 0.0 in
09:30 -9.2 °F -10.5 °F 979.2 in NW 4.8 mph 14.5 mph 90 % 0.0 in
09:45 -8.9 °F -10.1 °F 979.2 in NW 6.4 mph 12.9 mph 91 % 0.0 in
10:00 -8.4 °F -9.7 °F 979.2 in NW 6.4 mph 16.1 mph 90 % 0.0 in
10:15 -8.2 °F -9.7 °F 979.2 in NW 6.4 mph 16.1 mph 89 % 0.0 in
10:30 -8.1 °F -9.6 °F 979.6 in NW 8.0 mph 16.1 mph 89 % 0.0 in
10:45 -8.0 °F -9.6 °F 979.6 in NW 8.0 mph 19.3 mph 88 % 0.0 in
11:00 -7.9 °F -9.6 °F 979.6 in NW 6.4 mph 19.3 mph 88 % 0.0 in
11:15 -7.8 °F -9.5 °F 979.9 in NW 6.4 mph 16.1 mph 88 % 0.0 in
11:30 -7.7 °F -9.4 °F 979.9 in NW 9.7 mph 19.3 mph 88 % 0.0 in
11:45 -7.6 °F -9.2 °F 979.9 in NW 8.0 mph 16.1 mph 88 % 0.0 in
12:00 -7.4 °F -9.0 °F 980.2 in NW 8.0 mph 17.7 mph 88 % 0.0 in
12:15 -7.3 °F -8.9 °F 980.2 in NW 6.4 mph 16.1 mph 88 % 0.0 in
12:30 -7.2 °F -8.9 °F 980.6 in WNW 8.0 mph 17.7 mph 88 % 0.0 in
12:45 -7.2 °F -8.8 °F 980.9 in NW 8.0 mph 16.1 mph 88 % 0.0 in
13:00 -7.1 °F -8.8 °F 980.9 in NW 4.8 mph 16.1 mph 88 % 0.0 in
13:15 -7.1 °F -8.7 °F 980.9 in NW 6.4 mph 16.1 mph 88 % 0.0 in
13:30 -7.0 °F -8.7 °F 981.3 in NW 6.4 mph 12.9 mph 88 % 0.0 in
13:45 -6.8 °F -8.5 °F 981.3 in WNW 6.4 mph 16.1 mph 88 % 0.0 in
14:00 -6.6 °F -8.5 °F 981.6 in NW 8.0 mph 19.3 mph 86 % 0.0 in
14:15 -6.6 °F -8.5 °F 981.6 in NW 8.0 mph 25.7 mph 86 % 0.0 in
14:30 -6.5 °F -8.5 °F 981.6 in NW 6.4 mph 16.1 mph 86 % 0.0 in
14:45 -6.5 °F -8.5 °F 981.9 in NW 8.0 mph 17.7 mph 86 % 0.0 in
15:00 -6.7 °F -8.6 °F 981.9 in NW 11.3 mph 20.9 mph 86 % 0.0 in
15:15 -6.7 °F -8.4 °F 982.3 in NW 6.4 mph 14.5 mph 88 % 0.0 in
15:30 -6.7 °F -8.5 °F 982.3 in NW 8.0 mph 20.9 mph 87 % 0.0 in
15:45 -6.7 °F -8.4 °F 982.6 in NW 6.4 mph 16.1 mph 88 % 0.0 in
16:00 -6.7 °F -8.5 °F 982.6 in NW 6.4 mph 14.5 mph 87 % 0.0 in
16:15 -6.8 °F -8.6 °F 983.0 in NW 8.0 mph 16.1 mph 87 % 0.0 in
16:30 -6.9 °F -8.7 °F 983.0 in NW 6.4 mph 16.1 mph 87 % 0.0 in
16:45 -6.9 °F -8.7 °F 983.3 in NW 8.0 mph 17.7 mph 87 % 0.0 in
17:00 -7.0 °F -7.5 °F 983.6 in NW 4.8 mph 12.9 mph 96 % 0.0 in
17:15 -7.1 °F -8.8 °F 984.0 in NNW 6.4 mph 14.5 mph 88 % 0.0 in
17:30 -7.2 °F -8.8 °F 984.0 in NNW 4.8 mph 11.3 mph 88 % 0.0 in
17:45 -7.3 °F -8.9 °F 984.3 in NW 4.8 mph 16.1 mph 88 % 0.0 in
18:00 -7.3 °F -8.8 °F 984.6 in NW 4.8 mph 16.1 mph 89 % 0.0 in
18:15 -7.4 °F -8.9 °F 984.6 in NW 4.8 mph 12.9 mph 89 % 0.0 in
18:30 -7.5 °F -8.9 °F 985.0 in NW 4.8 mph 12.9 mph 90 % 0.0 in
18:45 -7.6 °F -9.1 °F 985.0 in NW 4.8 mph 12.9 mph 89 % 0.0 in
19:00 -7.7 °F -9.2 °F 985.0 in NW 3.2 mph 12.9 mph 89 % 0.0 in
19:15 -7.7 °F -9.2 °F 985.3 in NW 4.8 mph 9.7 mph 89 % 0.0 in
19:30 -7.7 °F -9.1 °F 985.7 in NW 4.8 mph 9.7 mph 90 % 0.0 in
19:45 -7.7 °F -9.1 °F 986.0 in NW 4.8 mph 12.9 mph 90 % 0.0 in
20:00 -7.7 °F -9.1 °F 986.0 in NW 3.2 mph 9.7 mph 90 % 0.0 in
20:15 -7.7 °F -9.1 °F 986.3 in NW 6.4 mph 12.9 mph 90 % 0.0 in
20:30 -7.7 °F -9.1 °F 986.7 in NW 6.4 mph 11.3 mph 90 % 0.0 in
20:45 -7.7 °F -9.1 °F 986.7 in NW 4.8 mph 9.7 mph 90 % 0.0 in
21:00 -7.7 °F -9.1 °F 987.0 in NW 3.2 mph 11.3 mph 90 % 0.0 in
21:15 -7.7 °F -9.1 °F 987.0 in NW 4.8 mph 9.7 mph 90 % 0.0 in
21:30 -7.7 °F -8.9 °F 987.4 in NW 6.4 mph 12.9 mph 91 % 0.0 in
21:45 -7.7 °F -8.9 °F 987.4 in NW 4.8 mph 9.7 mph 91 % 0.0 in
22:00 -7.7 °F -8.9 °F 987.7 in NW 4.8 mph 9.7 mph 91 % 0.0 in
22:15 -7.7 °F -8.9 °F 987.7 in NW 4.8 mph 9.7 mph 91 % 0.0 in
22:30 -7.7 °F -8.9 °F 988.0 in NW 6.4 mph 11.3 mph 91 % 0.0 in
22:45 -7.7 °F -8.9 °F 988.4 in NW 6.4 mph 11.3 mph 91 % 0.0 in
23:00 -7.8 °F -9.0 °F 988.4 in NW 6.4 mph 11.3 mph 91 % 0.0 in
23:15 -7.9 °F -9.2 °F 988.7 in NW 4.8 mph 9.7 mph 91 % 0.0 in
23:30 -7.9 °F -9.2 °F 989.1 in NW 3.2 mph 9.7 mph 91 % 0.0 in
23:45 -7.9 °F -9.2 °F 989.1 in NW 4.8 mph 8.0 mph 91 % 0.0 in
Esan sääasema
Terveisin Weather Underground - 2.75 mb

Alkuperäinen skripti  Jim McMurry - jmcmurry@mwt.net Sovitettu myös templatelle  Wim van der Kuil - Leuven-Template.eu

Laitteet joita käytämme:

Sääasema
Davis VP2

Sääasemaohjelma
Cumulus

Sääaseman tietokone
Asus EeePC

Palveluntarjoaja
Suncomet

Davis VP2

Cumulus

Asus EeePC

Suncomet